createdAt,value
2022-10-19T00:02:26.784Z,7.97
2022-10-19T00:04:55.242Z,7.47
2022-10-19T00:07:23.996Z,6.95
2022-10-19T00:09:52.420Z,6.88
2022-10-19T00:12:21.610Z,7.10
2022-10-19T00:14:51.165Z,7.35
2022-10-19T00:17:19.668Z,6.68
2022-10-19T00:19:48.179Z,7.50
2022-10-19T00:22:17.089Z,7.50
2022-10-19T00:24:46.285Z,6.50
2022-10-19T00:27:15.018Z,6.85
2022-10-19T00:29:43.366Z,6.38
2022-10-19T00:32:12.250Z,6.53
2022-10-19T00:34:40.882Z,5.60
2022-10-19T00:37:09.458Z,6.75
2022-10-19T00:39:39.523Z,6.28
2022-10-19T00:42:12.415Z,5.68
2022-10-19T00:44:40.714Z,5.47
2022-10-19T00:47:09.758Z,6.05
2022-10-19T00:49:42.843Z,5.82
2022-10-19T00:52:16.530Z,5.82
2022-10-19T00:54:47.280Z,5.82
2022-10-19T00:57:16.440Z,5.68
2022-10-19T00:59:46.437Z,5.60
2022-10-19T01:02:15.257Z,5.20
2022-10-19T01:04:48.463Z,5.93
2022-10-19T01:07:17.137Z,5.65
2022-10-19T01:09:46.115Z,5.95
2022-10-19T01:12:36.913Z,5.78
2022-10-19T01:15:24.938Z,6.15
2022-10-19T01:18:20.827Z,5.50
2022-10-19T01:21:40.359Z,5.03
2022-10-19T01:24:58.100Z,4.90
2022-10-19T01:27:32.708Z,4.32
2022-10-19T01:30:31.596Z,5.00
2022-10-19T01:33:29.827Z,4.68
2022-10-19T01:36:06.704Z,4.25
2022-10-19T01:38:51.876Z,3.78
2022-10-19T01:41:28.800Z,4.45
2022-10-19T01:44:16.723Z,3.88
2022-10-19T01:46:54.503Z,3.80
2022-10-19T01:49:35.411Z,3.88
2022-10-19T01:52:07.094Z,4.20
2022-10-19T01:54:43.104Z,3.85
2022-10-19T01:57:14.820Z,3.72
2022-10-19T01:59:44.221Z,3.78
2022-10-19T02:02:16.173Z,3.50
2022-10-19T02:04:45.890Z,3.50
2022-10-19T02:07:15.927Z,3.50
2022-10-19T02:09:44.481Z,3.22
2022-10-19T02:12:17.005Z,3.75
2022-10-19T02:14:50.330Z,3.63
2022-10-19T02:17:25.178Z,3.72
2022-10-19T02:19:55.237Z,3.67
2022-10-19T02:22:24.272Z,3.75
2022-10-19T02:24:52.618Z,3.95
2022-10-19T02:27:21.809Z,3.88
2022-10-19T02:29:50.494Z,3.67
2022-10-19T02:32:19.536Z,3.78
2022-10-19T02:34:47.943Z,4.28
2022-10-19T02:37:16.778Z,3.67
2022-10-19T02:39:46.123Z,3.92
2022-10-19T02:42:25.335Z,3.72
2022-10-19T02:44:58.728Z,3.70
2022-10-19T02:47:49.070Z,3.75
2022-10-19T02:50:19.786Z,3.83
2022-10-19T02:52:48.787Z,3.40
2022-10-19T02:55:17.383Z,3.60
2022-10-19T02:57:45.974Z,3.75
2022-10-19T03:00:15.095Z,3.65
2022-10-19T03:02:45.103Z,3.83
2022-10-19T03:05:13.396Z,3.35
2022-10-19T03:07:42.534Z,3.60
2022-10-19T03:10:11.140Z,3.67
2022-10-19T03:12:39.844Z,3.60
2022-10-19T03:15:08.931Z,3.47
2022-10-19T03:17:37.863Z,3.42
2022-10-19T03:20:06.764Z,3.65
2022-10-19T03:22:35.378Z,3.70
2022-10-19T03:25:04.500Z,4.05
2022-10-19T03:27:33.497Z,3.20
2022-10-19T03:30:02.387Z,3.80
2022-10-19T03:32:31.075Z,3.13
2022-10-19T03:34:59.380Z,3.45
2022-10-19T03:37:28.302Z,3.05
2022-10-19T03:39:56.631Z,3.25
2022-10-19T03:42:25.971Z,3.10
2022-10-19T03:44:55.648Z,3.45
2022-10-19T03:47:24.732Z,3.17
2022-10-19T03:49:53.188Z,4.20
2022-10-19T03:52:21.764Z,3.40
2022-10-19T03:54:51.116Z,3.92
2022-10-19T03:57:19.862Z,3.67
2022-10-19T03:59:49.189Z,3.70
2022-10-19T04:02:17.902Z,4.75
2022-10-19T04:04:46.616Z,3.30
2022-10-19T04:09:46.711Z,3.53
2022-10-19T04:12:15.443Z,3.55
2022-10-19T04:14:56.771Z,3.72
2022-10-19T04:17:26.575Z,3.50
2022-10-19T04:19:55.980Z,4.10
2022-10-19T04:22:24.559Z,3.45
2022-10-19T04:24:53.899Z,3.72
2022-10-19T04:27:23.611Z,3.85
2022-10-19T04:29:52.160Z,3.47
2022-10-19T04:32:20.773Z,3.70
2022-10-19T04:34:50.130Z,3.42
2022-10-19T04:37:18.997Z,3.80
2022-10-19T04:39:47.362Z,3.70
2022-10-19T04:42:16.007Z,3.38
2022-10-19T04:44:44.365Z,3.42
2022-10-19T04:47:13.196Z,4.00
2022-10-19T04:49:41.559Z,3.88
2022-10-19T04:52:10.385Z,3.58
2022-10-19T04:54:38.880Z,3.95
2022-10-19T04:57:08.287Z,3.90
2022-10-19T04:59:36.629Z,3.40
2022-10-19T05:02:05.788Z,3.55
2022-10-19T05:04:34.283Z,3.50
2022-10-19T05:07:02.810Z,3.70
2022-10-19T05:09:31.187Z,3.80
2022-10-19T05:11:59.837Z,3.50
2022-10-19T05:16:57.486Z,3.95
2022-10-19T05:19:26.085Z,3.47
2022-10-19T05:21:54.893Z,4.72
2022-10-19T05:24:23.646Z,3.35
2022-10-19T05:26:53.266Z,4.50
2022-10-19T05:29:21.541Z,3.50
2022-10-19T05:31:50.627Z,3.50
2022-10-19T05:34:19.088Z,3.58
2022-10-19T05:36:49.234Z,3.85
2022-10-19T05:39:21.330Z,3.58
2022-10-19T05:41:50.393Z,3.75
2022-10-19T05:44:23.657Z,4.47
2022-10-19T05:46:52.671Z,3.38
2022-10-19T05:49:22.722Z,4.18
2022-10-19T05:51:51.695Z,4.40
2022-10-19T05:54:22.666Z,4.40
2022-10-19T05:56:53.819Z,4.10
2022-10-19T05:59:24.878Z,4.85
2022-10-19T06:01:53.614Z,4.90
2022-10-19T06:04:22.076Z,4.68
2022-10-19T06:06:50.935Z,5.68
2022-10-19T06:09:20.815Z,4.70
2022-10-19T06:11:49.432Z,5.07
2022-10-19T06:14:18.323Z,4.72
2022-10-19T06:16:47.308Z,4.13
2022-10-19T06:19:16.142Z,4.28
2022-10-19T06:21:45.994Z,4.43
2022-10-19T06:24:14.662Z,4.72
2022-10-19T06:26:43.537Z,5.95
2022-10-19T06:29:12.276Z,4.28
2022-10-19T06:31:41.040Z,3.67
2022-10-19T06:34:09.527Z,3.85
2022-10-19T06:36:38.563Z,4.20
2022-10-19T06:39:07.036Z,4.40
2022-10-19T06:41:35.710Z,4.75
2022-10-19T06:44:19.645Z,6.07
2022-10-19T06:46:48.261Z,5.38
2022-10-19T06:49:16.659Z,7.35
2022-10-19T06:51:45.520Z,7.90
2022-10-19T06:54:13.969Z,8.20
2022-10-19T06:56:42.725Z,6.07
2022-10-19T06:59:14.834Z,5.00
2022-10-19T07:01:43.892Z,4.10
2022-10-19T07:04:12.542Z,4.60
2022-10-19T07:06:42.242Z,4.18
2022-10-19T07:09:10.739Z,5.05
2022-10-19T07:11:45.476Z,4.20
2022-10-19T07:14:14.775Z,4.13
2022-10-19T07:16:43.673Z,4.45
2022-10-19T07:19:13.828Z,4.43
2022-10-19T07:21:43.982Z,5.00
2022-10-19T07:24:12.483Z,4.70
2022-10-19T07:26:41.235Z,4.32
2022-10-19T07:29:09.815Z,4.57
2022-10-19T07:31:38.712Z,4.35
2022-10-19T07:34:07.526Z,3.90
2022-10-19T07:36:37.209Z,3.47
2022-10-19T07:39:08.280Z,4.35
2022-10-19T07:41:37.565Z,3.20
2022-10-19T07:44:06.964Z,2.58
2022-10-19T07:46:39.898Z,2.90
2022-10-19T07:49:13.999Z,2.75
2022-10-19T07:51:43.109Z,2.72
2022-10-19T07:54:11.508Z,2.75
2022-10-19T07:56:40.131Z,2.80
2022-10-19T07:59:09.713Z,3.00
2022-10-19T08:01:44.827Z,2.40
2022-10-19T08:05:11.585Z,3.08
2022-10-19T08:07:02.129Z,2.50
2022-10-19T08:12:18.954Z,2.63
2022-10-19T08:14:48.404Z,2.60
2022-10-19T08:17:17.843Z,2.25
2022-10-19T08:19:47.194Z,1.95
2022-10-19T08:22:16.199Z,2.13
2022-10-19T08:24:44.803Z,2.25
2022-10-19T08:27:15.108Z,1.80
2022-10-19T08:29:43.752Z,2.20
2022-10-19T08:32:13.609Z,1.95
2022-10-19T08:34:42.069Z,1.95
2022-10-19T08:37:20.196Z,2.10
2022-10-19T08:39:54.585Z,1.73
2022-10-19T08:42:34.278Z,1.80
2022-10-19T08:45:09.433Z,1.70
2022-10-19T08:48:04.698Z,1.42
2022-10-19T08:50:41.920Z,1.60
2022-10-19T08:53:16.879Z,1.90
2022-10-19T08:56:04.508Z,1.70
2022-10-19T08:58:49.158Z,1.23
2022-10-19T09:01:39.903Z,1.30
2022-10-19T09:04:17.906Z,1.05
2022-10-19T09:07:00.630Z,1.08
2022-10-19T09:09:32.352Z,0.70
2022-10-19T09:12:07.206Z,0.77
2022-10-19T09:14:47.944Z,0.70
2022-10-19T09:17:17.662Z,0.50
2022-10-19T09:19:46.298Z,0.80
2022-10-19T09:22:22.029Z,0.70
2022-10-19T09:24:54.500Z,0.63
2022-10-19T09:27:35.287Z,0.50
2022-10-19T09:30:15.063Z,0.80
2022-10-19T09:32:43.869Z,0.70
2022-10-19T09:35:21.389Z,0.73
2022-10-19T09:37:52.104Z,1.00
2022-10-19T09:40:27.151Z,0.73
2022-10-19T09:43:03.283Z,0.70
2022-10-19T09:45:39.772Z,0.70
2022-10-19T09:48:38.758Z,0.60
2022-10-19T09:51:15.678Z,0.50
2022-10-19T09:53:54.395Z,0.73
2022-10-19T09:56:26.143Z,0.60
2022-10-19T09:58:57.703Z,0.70
2022-10-19T10:04:15.554Z,0.63
2022-10-19T10:06:49.117Z,0.73
2022-10-19T10:09:21.647Z,0.70
2022-10-19T10:11:51.670Z,0.80
2022-10-19T10:14:40.071Z,0.77
2022-10-19T10:17:37.029Z,1.00
2022-10-19T10:20:19.973Z,0.60
2022-10-19T10:22:57.579Z,0.70
2022-10-19T10:25:29.448Z,1.38
2022-10-19T10:30:35.602Z,0.60
2022-10-19T10:33:13.522Z,0.65
2022-10-19T10:35:53.833Z,0.60
2022-10-19T10:38:33.898Z,0.50
2022-10-19T10:41:15.946Z,0.50
2022-10-19T10:44:00.884Z,0.60
2022-10-19T10:46:50.699Z,0.60
2022-10-19T10:49:36.546Z,0.60
2022-10-19T10:52:08.443Z,0.75
2022-10-19T10:54:38.283Z,0.90
2022-10-19T10:57:13.843Z,0.60
2022-10-19T10:59:52.230Z,0.43
2022-10-19T11:02:38.569Z,0.70
2022-10-19T11:05:29.349Z,0.60
2022-10-19T11:08:25.253Z,0.60
2022-10-19T11:11:09.158Z,0.50
2022-10-19T11:14:35.698Z,0.57
2022-10-19T11:17:12.022Z,0.60
2022-10-19T11:19:45.286Z,0.70
2022-10-19T11:22:26.316Z,0.70
2022-10-19T11:25:30.709Z,0.60
2022-10-19T11:28:28.961Z,0.93
2022-10-19T11:31:38.928Z,0.80
2022-10-19T11:34:07.701Z,0.65
2022-10-19T11:36:46.011Z,0.60
2022-10-19T11:39:58.385Z,0.82
2022-10-19T11:42:38.801Z,0.40
2022-10-19T11:45:38.705Z,0.63
2022-10-19T11:48:54.734Z,0.80
2022-10-19T11:51:43.366Z,2.17
2022-10-19T11:54:39.176Z,0.50
2022-10-19T11:57:20.824Z,0.50
2022-10-19T11:59:52.137Z,0.40
2022-10-19T12:02:48.358Z,0.70
2022-10-19T12:08:36.841Z,0.68
2022-10-19T12:11:05.729Z,0.60
2022-10-19T12:14:03.467Z,0.70
2022-10-19T12:16:50.155Z,0.60
2022-10-19T12:19:29.703Z,0.43
2022-10-19T12:22:04.577Z,0.70
2022-10-19T12:24:34.858Z,0.77
2022-10-19T12:27:04.775Z,0.90
2022-10-19T12:29:38.035Z,1.50
2022-10-19T12:32:10.919Z,0.57
2022-10-19T12:35:08.122Z,0.35
2022-10-19T12:37:55.574Z,0.50
2022-10-19T12:40:34.772Z,0.60
2022-10-19T12:43:12.574Z,0.60
2022-10-19T12:45:52.679Z,0.30
2022-10-19T12:48:23.092Z,0.57
2022-10-19T12:50:53.976Z,0.35
2022-10-19T12:53:36.311Z,2.42
2022-10-19T12:56:19.688Z,0.85
2022-10-19T12:59:01.379Z,1.98
2022-10-19T13:01:36.092Z,4.82
2022-10-19T13:04:10.385Z,4.20
2022-10-19T13:06:49.905Z,0.70
2022-10-19T13:09:34.564Z,0.40
2022-10-19T13:12:26.101Z,0.50
2022-10-19T13:15:13.134Z,4.28
2022-10-19T13:17:47.412Z,8.18
2022-10-19T13:20:15.844Z,0.90
2022-10-19T13:22:52.486Z,16.38
2022-10-19T13:25:36.288Z,1.70
2022-10-19T13:28:17.993Z,8.00
2022-10-19T13:31:03.499Z,4.35
2022-10-19T13:33:45.921Z,7.50
2022-10-19T13:36:15.110Z,4.82
2022-10-19T13:38:46.978Z,7.93
2022-10-19T13:41:47.758Z,3.50
2022-10-19T13:44:28.182Z,2.95
2022-10-19T13:47:32.708Z,1.30
2022-10-19T13:50:19.118Z,9.48
2022-10-19T13:53:02.723Z,2.40
2022-10-19T13:55:53.573Z,1.25
2022-10-19T13:59:14.574Z,0.65
2022-10-19T14:02:13.018Z,1.05
2022-10-19T14:05:03.014Z,1.10
2022-10-19T14:07:44.129Z,0.88
2022-10-19T14:10:32.672Z,0.55
2022-10-19T14:13:41.365Z,0.60
2022-10-19T14:16:22.660Z,0.50
2022-10-19T14:19:13.913Z,6.63
2022-10-19T14:21:42.436Z,1.80
2022-10-19T14:24:21.745Z,0.50
2022-10-19T14:26:50.311Z,0.50
2022-10-19T14:29:18.906Z,0.63
2022-10-19T14:31:47.437Z,0.80
2022-10-19T14:34:16.573Z,0.38
2022-10-19T14:36:48.002Z,0.50
2022-10-19T14:39:32.174Z,0.50
2022-10-19T14:42:10.633Z,0.52
2022-10-19T14:44:43.305Z,0.82
2022-10-19T14:47:31.948Z,1.30
2022-10-19T14:50:00.750Z,2.95
2022-10-19T14:52:38.579Z,1.05
2022-10-19T14:55:17.864Z,0.63
2022-10-19T14:57:49.592Z,0.63
2022-10-19T15:00:21.335Z,0.90
2022-10-19T15:03:06.781Z,0.80
2022-10-19T15:05:41.176Z,0.90
2022-10-19T15:08:17.468Z,0.80
2022-10-19T15:10:48.575Z,0.63
2022-10-19T15:13:43.132Z,0.93
2022-10-19T15:16:32.028Z,0.70
2022-10-19T15:19:40.010Z,0.68
2022-10-19T15:22:16.480Z,0.68
2022-10-19T15:25:07.450Z,0.60
2022-10-19T15:27:45.852Z,0.77
2022-10-19T15:30:31.703Z,0.73
2022-10-19T15:33:00.524Z,3.90
2022-10-19T15:35:38.169Z,4.90
2022-10-19T15:38:27.288Z,2.55
2022-10-19T15:41:21.123Z,1.42
2022-10-19T15:43:54.537Z,1.90
2022-10-19T15:46:26.102Z,1.20
2022-10-19T15:48:56.732Z,1.90
2022-10-19T15:51:25.263Z,1.15
2022-10-19T15:53:59.246Z,1.17
2022-10-19T15:56:30.334Z,1.15
2022-10-19T15:59:01.612Z,0.80
2022-10-19T16:01:33.632Z,1.10
2022-10-19T16:04:02.509Z,1.27
2022-10-19T16:06:33.122Z,1.45
2022-10-19T16:09:02.811Z,0.90
2022-10-19T16:11:59.804Z,1.02
2022-10-19T17:00:20.251Z,1.77
2022-10-19T17:02:51.197Z,2.38
2022-10-19T17:05:45.793Z,7.97
2022-10-19T17:11:41.407Z,2.20
2022-10-19T17:14:34.437Z,2.67
2022-10-19T17:17:46.691Z,6.55
2022-10-19T17:20:16.017Z,9.52
2022-10-19T17:26:13.366Z,6.90
2022-10-19T17:28:42.952Z,6.75
2022-10-19T17:31:16.038Z,7.30
2022-10-19T17:33:44.857Z,4.65
2022-10-19T17:36:19.164Z,4.03
2022-10-19T17:38:47.904Z,4.65
2022-10-19T17:41:22.711Z,4.72
2022-10-19T17:44:08.077Z,4.40
2022-10-19T17:46:36.994Z,3.83
2022-10-19T17:49:06.248Z,4.03
2022-10-19T17:51:36.382Z,4.00
2022-10-19T17:54:13.734Z,3.97
2022-10-19T17:56:45.349Z,4.30
2022-10-19T17:59:14.503Z,3.38
2022-10-19T18:01:43.162Z,3.47
2022-10-19T18:04:11.791Z,3.05
2022-10-19T18:06:45.204Z,3.05
2022-10-19T18:09:13.868Z,5.55
2022-10-19T18:11:45.021Z,3.85
2022-10-19T18:14:13.728Z,3.10
2022-10-19T18:16:45.733Z,2.67
2022-10-19T18:19:16.209Z,3.22
2022-10-19T18:21:47.932Z,3.90
2022-10-19T18:24:21.555Z,3.30
2022-10-19T18:26:51.041Z,3.40
2022-10-19T18:29:22.052Z,3.30
2022-10-19T18:31:55.264Z,3.73
2022-10-19T18:34:26.373Z,4.10
2022-10-19T18:36:55.261Z,4.47
2022-10-19T18:39:23.879Z,5.53
2022-10-19T18:41:54.812Z,11.38
2022-10-19T18:44:26.513Z,10.02
2022-10-19T18:46:57.251Z,7.82
2022-10-19T18:49:25.821Z,4.65
2022-10-19T18:51:55.781Z,11.43
2022-10-19T18:54:28.218Z,16.52
2022-10-19T18:56:57.247Z,16.25
2022-10-19T19:01:54.605Z,13.05
2022-10-19T19:04:23.039Z,10.25
2022-10-19T19:06:53.075Z,11.02
2022-10-19T19:09:21.680Z,9.95
2022-10-19T19:12:16.428Z,8.40
2022-10-19T19:14:45.358Z,10.30
2022-10-19T19:17:14.122Z,11.38
2022-10-19T19:19:42.526Z,10.75
2022-10-19T19:22:11.268Z,10.20
2022-10-19T19:24:39.843Z,10.13
2022-10-19T19:27:10.787Z,12.70
2022-10-19T19:29:39.748Z,11.02
2022-10-19T19:32:08.611Z,10.35
2022-10-19T19:34:37.140Z,9.77
2022-10-19T19:37:15.586Z,9.18
2022-10-19T19:39:45.226Z,8.68
2022-10-19T19:42:14.511Z,7.93
2022-10-19T19:44:42.954Z,6.75
2022-10-19T19:47:11.935Z,6.47
2022-10-19T19:49:40.495Z,5.38
2022-10-19T19:52:09.424Z,5.85
2022-10-19T19:54:38.000Z,6.40
2022-10-19T19:57:11.853Z,6.80
2022-10-19T19:59:42.089Z,6.85
2022-10-19T20:02:11.285Z,6.88
2022-10-19T20:04:40.285Z,6.80
2022-10-19T20:07:09.130Z,7.43
2022-10-19T20:09:39.349Z,7.00
2022-10-19T20:12:08.168Z,13.48
2022-10-19T20:14:36.743Z,12.75
2022-10-19T20:17:05.434Z,10.98
2022-10-19T20:19:34.184Z,7.18
2022-10-19T20:22:02.923Z,5.30
2022-10-19T20:24:33.028Z,5.30
2022-10-19T20:27:04.374Z,5.20
2022-10-19T20:29:32.979Z,5.78
2022-10-19T20:32:02.046Z,6.07
2022-10-19T20:34:30.569Z,6.43
2022-10-19T20:37:03.818Z,7.18
2022-10-19T20:39:32.775Z,5.65
2022-10-19T20:42:01.535Z,6.13
2022-10-19T20:44:33.207Z,8.35
2022-10-19T20:47:02.009Z,8.38
2022-10-19T20:49:30.494Z,9.23
2022-10-19T20:52:07.029Z,9.20
2022-10-19T20:54:36.043Z,8.43
2022-10-19T20:57:05.335Z,7.10
2022-10-19T20:59:40.022Z,11.40
2022-10-19T21:02:11.897Z,11.05
2022-10-19T21:04:40.258Z,15.88
2022-10-19T21:07:09.337Z,14.45
2022-10-19T21:10:03.211Z,13.00
2022-10-19T21:12:32.073Z,11.77
2022-10-19T21:15:01.763Z,11.55
2022-10-19T21:19:59.795Z,10.10
2022-10-19T21:22:28.447Z,9.55
2022-10-19T21:24:56.759Z,9.73
2022-10-19T21:27:25.754Z,9.57
2022-10-19T21:29:54.181Z,9.57
2022-10-19T21:32:49.310Z,8.57
2022-10-19T21:35:18.023Z,7.72
2022-10-19T21:37:46.709Z,8.32
2022-10-19T21:40:15.032Z,7.82
2022-10-19T21:42:45.565Z,6.43
2022-10-19T21:45:30.632Z,6.88
2022-10-19T21:47:59.597Z,7.18
2022-10-19T21:50:27.986Z,9.68
2022-10-19T21:53:23.770Z,11.05
2022-10-19T21:55:55.056Z,13.25
2022-10-19T21:58:23.683Z,12.97
2022-10-19T22:00:52.548Z,13.43
2022-10-19T22:03:21.355Z,11.70
2022-10-19T22:05:53.435Z,12.82
2022-10-19T22:08:23.211Z,12.60
2022-10-19T22:10:51.811Z,14.60
2022-10-19T22:13:20.452Z,16.33
2022-10-19T22:15:48.915Z,16.80
2022-10-19T22:18:17.570Z,17.33
2022-10-19T22:20:45.935Z,15.10
2022-10-19T22:23:14.872Z,13.27
2022-10-19T22:25:43.360Z,12.68
2022-10-19T22:28:12.020Z,15.07
2022-10-19T22:30:42.872Z,12.73
2022-10-19T22:33:11.630Z,15.57
2022-10-19T22:35:39.984Z,21.02
2022-10-19T22:38:08.699Z,29.02
2022-10-19T22:40:37.155Z,19.40
2022-10-19T22:43:09.381Z,9.77
2022-10-19T22:45:37.749Z,10.80
2022-10-19T22:48:08.208Z,11.00
2022-10-19T22:50:36.492Z,12.75
2022-10-19T22:53:05.149Z,11.43
2022-10-19T22:55:33.449Z,15.77
2022-10-19T22:58:02.458Z,17.48
2022-10-19T23:00:30.982Z,11.65
2022-10-19T23:02:59.585Z,10.55
2022-10-19T23:05:28.032Z,8.85
2022-10-19T23:07:56.598Z,7.85
2022-10-19T23:10:25.213Z,11.55
2022-10-19T23:12:54.657Z,11.70
2022-10-19T23:15:22.956Z,11.85
2022-10-19T23:17:51.689Z,11.57
2022-10-19T23:20:20.002Z,11.32
2022-10-19T23:22:50.400Z,10.30
2022-10-19T23:25:18.879Z,10.00
2022-10-19T23:27:49.023Z,10.02
2022-10-19T23:30:17.452Z,10.30
2022-10-19T23:32:46.066Z,10.88
2022-10-19T23:35:14.384Z,15.50
2022-10-19T23:37:42.846Z,17.08
2022-10-19T23:40:11.801Z,10.38
2022-10-19T23:42:40.842Z,10.30
2022-10-19T23:45:09.812Z,7.97
2022-10-19T23:47:38.780Z,7.72
2022-10-19T23:50:07.503Z,8.20
2022-10-19T23:52:35.998Z,7.68
2022-10-19T23:55:04.847Z,8.10
2022-10-19T23:57:33.917Z,8.98
